Friendsville, Pennsylvania
Current Conditions -  °F | °C
As of 10:10 PM on Tuesday 21 Oct 2014 (Local Time) from KBGM Reporting Station
Overcast Overcast  
Wind Chill: 47°   Ceiling: 1200
Heat Index: 49°   Visibility: 10mi
Dew Point: 47°   Wind: 5mph
Humidity: 93%   Direction: 20°NNE
Pressure: 29.96"   Gusts: NA
Location:  41.92°N, 76.05°W
Report Text: KBGM 220210Z 02004KT 10SM BKN012 OVC065 09/08 A2996 RMK AO2 T00940083
Loading
Personal Weather Stations






























Interactive Weather Map
Tropical Storm Tracking
New forecast layout! Learn more

10-Day Weather Forecast

Advertisements
Track Severe Weather on mobile